createdAt,value
2019-02-23T00:00:13.163Z,101991.00
2019-02-23T00:02:42.393Z,101997.02
2019-02-23T00:05:11.586Z,102005.25
2019-02-23T00:07:40.724Z,102006.52
2019-02-23T00:10:09.954Z,102012.67
2019-02-23T00:12:39.146Z,102015.30
2019-02-23T00:15:08.332Z,102019.23
2019-02-23T00:17:37.562Z,102029.47
2019-02-23T00:20:08.520Z,102033.16
2019-02-23T00:22:37.760Z,102030.17
2019-02-23T00:25:06.874Z,102034.38
2019-02-23T00:27:36.074Z,102027.53
2019-02-23T00:30:07.260Z,102036.16
2019-02-23T00:32:36.400Z,102038.72
2019-02-23T00:35:05.604Z,102039.19
2019-02-23T00:37:34.824Z,102042.12
2019-02-23T00:40:04.108Z,102040.43
2019-02-23T00:42:33.251Z,102031.66
2019-02-23T00:45:02.390Z,102031.70
2019-02-23T00:47:31.556Z,102030.80
2019-02-23T00:50:00.660Z,102029.92
2019-02-23T00:52:29.793Z,102029.39
2019-02-23T00:54:59.007Z,102038.25
2019-02-23T00:57:28.124Z,102036.01
2019-02-23T00:59:57.276Z,102035.39
2019-02-23T01:02:26.490Z,102026.72
2019-02-23T01:04:55.644Z,102030.70
2019-02-23T01:07:24.762Z,102034.38
2019-02-23T01:09:53.901Z,102043.91
2019-02-23T01:12:23.924Z,102035.85
2019-02-23T01:14:53.111Z,102038.82
2019-02-23T01:17:22.218Z,102039.11
2019-02-23T01:19:51.364Z,102040.81
2019-02-23T01:22:20.502Z,102036.98
2019-02-23T01:24:49.639Z,102046.84
2019-02-23T01:27:18.838Z,102045.98
2019-02-23T01:29:48.054Z,102041.16
2019-02-23T01:32:17.180Z,102036.55
2019-02-23T01:34:47.935Z,102035.62
2019-02-23T01:37:17.095Z,102035.47
2019-02-23T01:39:46.244Z,102019.75
2019-02-23T01:42:15.455Z,102031.01
2019-02-23T01:44:44.756Z,102031.18
2019-02-23T01:47:13.892Z,102029.75
2019-02-23T01:49:43.039Z,102027.97
2019-02-23T01:52:12.174Z,102021.66
2019-02-23T01:54:41.337Z,102020.78
2019-02-23T01:57:10.502Z,102027.64
2019-02-23T01:59:39.623Z,102026.54
2019-02-23T02:02:08.845Z,102021.88
2019-02-23T02:04:38.049Z,102018.86
2019-02-23T02:07:07.576Z,102024.96
2019-02-23T02:09:36.713Z,102027.79
2019-02-23T02:12:07.508Z,102026.52
2019-02-23T02:14:36.618Z,102025.80
2019-02-23T02:17:05.781Z,102029.59
2019-02-23T02:19:35.551Z,102031.37
2019-02-23T02:22:04.698Z,102032.97
2019-02-23T02:24:33.826Z,102030.22
2019-02-23T02:27:03.105Z,102024.56
2019-02-23T02:29:32.240Z,102030.62
2019-02-23T02:32:01.383Z,102039.77
2019-02-23T02:34:30.493Z,102033.26
2019-02-23T02:36:59.642Z,102034.86
2019-02-23T02:39:28.812Z,102032.53
2019-02-23T02:41:57.946Z,102035.59
2019-02-23T02:44:27.144Z,102032.68
2019-02-23T02:46:56.264Z,102032.81
2019-02-23T02:49:25.410Z,102037.02
2019-02-23T02:51:54.523Z,102043.80
2019-02-23T02:54:23.670Z,102043.02
2019-02-23T02:56:52.881Z,102046.97
2019-02-23T02:59:21.999Z,102051.97
2019-02-23T03:01:51.145Z,102046.73
2019-02-23T03:04:20.342Z,102047.81
2019-02-23T03:06:49.398Z,102057.31
2019-02-23T03:09:18.566Z,102052.50
2019-02-23T03:11:47.739Z,102057.16
2019-02-23T03:14:16.974Z,102053.87
2019-02-23T03:16:46.064Z,102053.34
2019-02-23T03:19:15.345Z,102053.48
2019-02-23T03:21:44.549Z,102050.25
2019-02-23T03:24:13.698Z,102055.89
2019-02-23T03:26:42.844Z,102056.88
2019-02-23T03:29:11.996Z,102048.75
2019-02-23T03:31:41.099Z,102053.90
2019-02-23T03:34:10.262Z,102048.49
2019-02-23T03:36:39.407Z,102051.66
2019-02-23T03:39:08.541Z,102045.08
2019-02-23T03:41:37.665Z,102038.23
2019-02-23T03:44:06.806Z,102043.46
2019-02-23T03:46:35.923Z,102052.25
2019-02-23T03:49:05.082Z,102048.83
2019-02-23T03:51:34.244Z,102037.66
2019-02-23T03:54:03.452Z,102030.70
2019-02-23T03:56:32.589Z,102024.58
2019-02-23T03:59:01.704Z,102019.15
2019-02-23T04:01:30.836Z,102026.94
2019-02-23T04:04:01.580Z,102025.20
2019-02-23T04:06:30.753Z,102028.28
2019-02-23T04:09:02.611Z,102031.56
2019-02-23T04:11:30.782Z,102032.34
2019-02-23T04:13:59.876Z,102038.48
2019-02-23T04:16:29.039Z,102035.95
2019-02-23T04:18:58.226Z,102033.36
2019-02-23T04:21:27.393Z,102034.44
2019-02-23T04:23:56.614Z,102035.95
2019-02-23T04:26:25.818Z,102031.31
2019-02-23T04:28:54.938Z,102029.84
2019-02-23T04:31:24.107Z,102025.70
2019-02-23T04:33:53.248Z,102028.06
2019-02-23T04:36:22.393Z,102025.86
2019-02-23T04:38:51.567Z,102031.59
2019-02-23T04:41:20.711Z,102029.78
2019-02-23T04:43:49.831Z,102029.01
2019-02-23T04:46:18.993Z,102017.87
2019-02-23T04:48:48.114Z,102024.32
2019-02-23T04:51:17.309Z,102022.35
2019-02-23T04:53:46.411Z,102019.00
2019-02-23T04:56:15.603Z,102013.41
2019-02-23T04:58:44.730Z,102009.43
2019-02-23T05:01:13.861Z,102014.02
2019-02-23T05:03:42.987Z,102010.03
2019-02-23T05:06:12.142Z,102004.69
2019-02-23T05:08:41.298Z,102012.16
2019-02-23T05:11:10.663Z,102009.20
2019-02-23T05:13:39.828Z,102011.77
2019-02-23T05:16:08.912Z,102010.49
2019-02-23T05:18:38.054Z,102014.31
2019-02-23T05:21:07.209Z,102021.34
2019-02-23T05:23:36.368Z,102024.65
2019-02-23T05:26:05.561Z,102017.63
2019-02-23T05:28:34.720Z,102016.53
2019-02-23T05:31:03.845Z,102008.84
2019-02-23T05:33:32.979Z,102014.77
2019-02-23T05:36:02.159Z,102011.08
2019-02-23T05:38:31.279Z,102002.39
2019-02-23T05:41:00.428Z,102003.20
2019-02-23T05:43:29.557Z,102002.05
2019-02-23T05:45:58.651Z,102007.38
2019-02-23T05:48:27.822Z,102002.87
2019-02-23T05:50:56.997Z,102011.90
2019-02-23T05:53:26.159Z,102009.16
2019-02-23T05:55:55.293Z,102008.48
2019-02-23T05:58:24.408Z,102018.23
2019-02-23T06:00:53.548Z,102022.53
2019-02-23T06:03:25.441Z,102021.00
2019-02-23T06:05:54.255Z,102028.91
2019-02-23T06:08:23.467Z,102033.37
2019-02-23T06:10:52.580Z,102039.70
2019-02-23T06:13:21.718Z,102040.75
2019-02-23T06:15:50.859Z,102038.50
2019-02-23T06:18:20.385Z,102035.02
2019-02-23T06:20:49.567Z,102033.42
2019-02-23T06:23:18.773Z,102034.55
2019-02-23T06:25:49.549Z,102038.13
2019-02-23T06:28:18.703Z,102040.51
2019-02-23T06:30:47.847Z,102035.47
2019-02-23T06:33:17.051Z,102034.30
2019-02-23T06:35:48.135Z,102033.39
2019-02-23T06:38:17.302Z,102032.09
2019-02-23T06:40:46.614Z,102028.39
2019-02-23T06:43:15.721Z,102026.25
2019-02-23T06:45:44.872Z,102031.95
2019-02-23T06:48:14.015Z,102031.59
2019-02-23T06:50:43.247Z,102030.02
2019-02-23T06:53:12.379Z,102029.97
2019-02-23T06:55:41.531Z,102021.80
2019-02-23T06:58:10.757Z,102018.78
2019-02-23T07:00:39.888Z,102025.77
2019-02-23T07:03:09.044Z,102029.20
2019-02-23T07:05:38.219Z,102032.84
2019-02-23T07:08:07.343Z,102034.02
2019-02-23T07:10:36.548Z,102024.78
2019-02-23T07:13:05.760Z,102029.66
2019-02-23T07:15:34.921Z,102039.98
2019-02-23T07:18:04.047Z,102046.75
2019-02-23T07:20:43.423Z,102052.62
2019-02-23T07:23:04.065Z,102060.28
2019-02-23T07:25:33.161Z,102068.39
2019-02-23T07:28:02.328Z,102074.23
2019-02-23T07:30:31.478Z,102073.05
2019-02-23T07:33:00.651Z,102074.32
2019-02-23T07:35:29.846Z,102066.16
2019-02-23T07:37:58.961Z,102074.28
2019-02-23T07:40:28.192Z,102075.29
2019-02-23T07:42:57.326Z,102083.80
2019-02-23T07:45:26.470Z,102086.03
2019-02-23T07:47:55.651Z,102095.28
2019-02-23T07:50:24.773Z,102090.59
2019-02-23T07:52:53.928Z,102083.58
2019-02-23T07:55:23.141Z,102092.77
2019-02-23T07:57:52.294Z,102086.86
2019-02-23T08:00:21.419Z,102095.75
2019-02-23T08:02:50.648Z,102095.41
2019-02-23T08:05:19.768Z,102096.74
2019-02-23T08:07:48.891Z,102099.84
2019-02-23T08:10:18.059Z,102099.33
2019-02-23T08:12:47.215Z,102095.52
2019-02-23T08:15:16.338Z,102089.27
2019-02-23T08:17:45.495Z,102093.61
2019-02-23T08:20:14.831Z,102096.44
2019-02-23T08:22:43.976Z,102101.13
2019-02-23T08:25:15.593Z,102100.77
2019-02-23T08:27:44.723Z,102108.44
2019-02-23T08:30:16.291Z,102104.29
2019-02-23T08:32:45.431Z,102108.17
2019-02-23T08:35:14.579Z,102115.25
2019-02-23T08:37:43.719Z,102107.14
2019-02-23T08:40:16.179Z,102102.72
2019-02-23T08:42:45.278Z,102101.53
2019-02-23T08:45:14.401Z,102101.98
2019-02-23T08:47:43.558Z,102099.84
2019-02-23T08:50:15.228Z,102093.09
2019-02-23T08:52:49.219Z,102071.97
2019-02-23T08:55:15.281Z,102062.12
2019-02-23T08:57:44.413Z,102074.09
2019-02-23T09:00:19.148Z,102057.83
2019-02-23T09:02:48.297Z,102054.05
2019-02-23T09:05:19.052Z,102054.02
2019-02-23T09:07:48.213Z,102049.45
2019-02-23T09:10:17.463Z,102051.28
2019-02-23T09:12:46.637Z,102041.64
2019-02-23T09:15:15.869Z,102047.69
2019-02-23T09:17:45.032Z,102041.31
2019-02-23T09:20:14.198Z,102050.39
2019-02-23T09:22:45.009Z,102049.58
2019-02-23T09:25:14.156Z,102058.14
2019-02-23T09:27:43.280Z,102046.86
2019-02-23T09:30:16.236Z,102047.53
2019-02-23T09:32:45.394Z,102049.82
2019-02-23T09:35:14.611Z,102052.98
2019-02-23T09:37:43.733Z,102056.25
2019-02-23T09:40:16.253Z,102052.73
2019-02-23T09:42:45.418Z,102043.73
2019-02-23T09:45:14.628Z,102039.92
2019-02-23T09:47:43.801Z,102055.59
2019-02-23T09:50:12.943Z,102060.75
2019-02-23T09:52:42.090Z,102056.64
2019-02-23T09:55:11.236Z,102060.81
2019-02-23T09:57:40.418Z,102067.87
2019-02-23T10:00:13.858Z,102063.49
2019-02-23T10:02:43.004Z,102053.95
2019-02-23T10:05:12.169Z,102059.68
2019-02-23T10:07:41.304Z,102064.14
2019-02-23T10:10:11.747Z,102070.44
2019-02-23T10:12:42.546Z,102065.80
2019-02-23T10:15:12.136Z,102068.53
2019-02-23T10:17:41.288Z,102052.34
2019-02-23T10:20:13.138Z,102059.53
2019-02-23T10:22:42.280Z,102060.25
2019-02-23T10:25:11.444Z,102055.39
2019-02-23T10:27:40.577Z,102048.05
2019-02-23T10:30:13.737Z,102047.98
2019-02-23T10:32:42.895Z,102050.91
2019-02-23T10:35:13.945Z,102042.97
2019-02-23T10:37:43.105Z,102033.77
2019-02-23T10:40:13.102Z,102025.27
2019-02-23T10:42:42.303Z,102027.45
2019-02-23T10:45:13.103Z,102032.70
2019-02-23T10:47:42.300Z,102023.45
2019-02-23T10:50:16.885Z,102023.09
2019-02-23T10:52:46.026Z,102008.83
2019-02-23T10:55:15.909Z,102005.02
2019-02-23T10:57:45.045Z,101993.99
2019-02-23T11:00:21.075Z,101999.54
2019-02-23T11:02:50.216Z,101994.95
2019-02-23T11:05:20.566Z,101994.91
2019-02-23T11:07:49.720Z,101991.38
2019-02-23T11:10:19.021Z,102002.82
2019-02-23T11:12:48.268Z,102006.10
2019-02-23T11:15:19.086Z,102018.45
2019-02-23T11:17:48.248Z,102022.84
2019-02-23T11:20:17.898Z,102025.14
2019-02-23T11:22:47.036Z,102029.66
2019-02-23T11:25:16.212Z,102030.30
2019-02-23T11:27:45.836Z,102016.89
2019-02-23T11:30:16.503Z,102028.05
2019-02-23T11:32:45.663Z,102024.48
2019-02-23T11:35:17.636Z,102019.66
2019-02-23T11:37:47.081Z,102023.47
2019-02-23T11:40:17.058Z,102018.83
2019-02-23T11:42:46.224Z,102013.16
2019-02-23T11:45:15.364Z,102013.72
2019-02-23T11:47:44.507Z,102016.39
2019-02-23T11:50:14.365Z,102012.80
2019-02-23T11:52:43.536Z,102013.24
2019-02-23T11:55:12.692Z,102013.94
2019-02-23T11:57:41.885Z,102009.95
2019-02-23T12:00:13.920Z,102011.59
2019-02-23T12:02:51.940Z,102009.53
2019-02-23T12:05:13.986Z,101999.59
2019-02-23T12:07:43.175Z,101993.71
2019-02-23T12:10:16.057Z,102005.56
2019-02-23T12:12:45.212Z,102007.97
2019-02-23T12:15:14.463Z,102000.53
2019-02-23T12:17:43.583Z,101998.95
2019-02-23T12:20:14.375Z,101991.70
2019-02-23T12:22:43.529Z,101985.12
2019-02-23T12:25:15.943Z,101974.17
2019-02-23T12:27:43.582Z,101977.52
2019-02-23T12:30:12.791Z,101970.81
2019-02-23T12:32:42.024Z,101977.98
2019-02-23T12:35:12.112Z,101976.32
2019-02-23T12:37:41.358Z,101969.52
2019-02-23T12:40:11.250Z,101971.31
2019-02-23T12:42:43.061Z,101960.16
2019-02-23T12:45:13.635Z,101955.38
2019-02-23T12:47:42.850Z,101947.52
2019-02-23T12:50:13.320Z,101943.55
2019-02-23T12:52:42.470Z,101946.26
2019-02-23T12:55:12.378Z,101943.11
2019-02-23T12:57:41.694Z,101945.23
2019-02-23T13:00:17.362Z,101941.69
2019-02-23T13:02:46.499Z,101932.80
2019-02-23T13:05:15.653Z,101928.83
2019-02-23T13:07:44.787Z,101920.75
2019-02-23T13:10:14.305Z,101917.37
2019-02-23T13:13:32.201Z,101919.66
2019-02-23T13:16:18.257Z,101933.65
2019-02-23T13:19:09.932Z,101939.38
2019-02-23T13:22:09.573Z,101933.92
2019-02-23T13:25:01.866Z,101933.59
2019-02-23T13:27:47.177Z,101920.70
2019-02-23T13:30:38.932Z,101917.52
2019-02-23T13:33:30.797Z,101910.94
2019-02-23T13:36:24.198Z,101914.19
2019-02-23T13:39:15.709Z,101907.73
2019-02-23T13:42:11.149Z,101905.61
2019-02-23T13:44:56.362Z,101901.06
2019-02-23T13:47:57.271Z,101901.70
2019-02-23T13:50:52.175Z,101892.96
2019-02-23T13:53:35.127Z,101896.32
2019-02-23T13:56:28.989Z,101897.61
2019-02-23T13:59:14.985Z,101890.74
2019-02-23T14:01:51.609Z,101880.55
2019-02-23T14:04:34.309Z,101882.28
2019-02-23T14:07:27.905Z,101887.45
2019-02-23T14:10:43.060Z,101878.09
2019-02-23T14:13:33.908Z,101875.60
2019-02-23T14:16:25.677Z,101881.09
2019-02-23T14:19:02.535Z,101872.12
2019-02-23T14:21:51.274Z,101868.34
2019-02-23T14:24:50.178Z,101869.27
2019-02-23T14:27:50.686Z,101868.43
2019-02-23T14:30:55.128Z,101875.62
2019-02-23T14:33:44.131Z,101875.73
2019-02-23T14:36:38.781Z,101870.17
2019-02-23T14:39:41.723Z,101879.12
2019-02-23T14:42:18.672Z,101890.66
2019-02-23T14:44:55.416Z,101882.84
2019-02-23T14:47:49.030Z,101881.42
2019-02-23T14:50:59.105Z,101877.89
2019-02-23T14:53:38.901Z,101878.86
2019-02-23T14:56:35.570Z,101878.53
2019-02-23T14:59:37.030Z,101882.50
2019-02-23T15:02:55.795Z,101888.47
2019-02-23T15:05:53.345Z,101885.01
2019-02-23T15:08:27.402Z,101883.20
2019-02-23T15:11:13.095Z,101884.92
2019-02-23T15:14:17.516Z,101889.97
2019-02-23T15:17:13.521Z,101883.52
2019-02-23T15:20:30.920Z,101881.88
2019-02-23T15:23:23.091Z,101882.52
2019-02-23T15:26:28.885Z,101885.22
2019-02-23T15:29:33.058Z,101890.38
2019-02-23T15:32:26.729Z,101885.34
2019-02-23T15:35:06.665Z,101881.52
2019-02-23T15:37:58.376Z,101885.28
2019-02-23T15:41:18.092Z,101886.22
2019-02-23T15:43:57.475Z,101883.24
2019-02-23T15:46:40.537Z,101881.16
2019-02-23T15:49:32.938Z,101876.25
2019-02-23T15:52:03.587Z,101870.09
2019-02-23T15:54:32.734Z,101879.95
2019-02-23T15:57:01.906Z,101878.41
2019-02-23T15:59:31.035Z,101882.66
2019-02-23T16:02:00.212Z,101884.85
2019-02-23T16:04:29.376Z,101888.09
2019-02-23T16:06:58.502Z,101896.22
2019-02-23T16:09:27.677Z,101892.75
2019-02-23T16:11:56.802Z,101897.06
2019-02-23T16:14:25.966Z,101897.11
2019-02-23T16:16:55.185Z,101892.73
2019-02-23T16:19:24.355Z,101893.36
2019-02-23T16:21:53.550Z,101893.81
2019-02-23T16:24:22.721Z,101894.61
2019-02-23T16:26:51.871Z,101897.13
2019-02-23T16:29:21.011Z,101899.89
2019-02-23T16:31:50.184Z,101893.82
2019-02-23T16:34:19.319Z,101905.09
2019-02-23T16:36:48.500Z,101905.27
2019-02-23T16:39:17.660Z,101900.85
2019-02-23T16:41:47.190Z,101916.81
2019-02-23T16:44:16.965Z,101911.78
2019-02-23T16:46:46.571Z,101907.45
2019-02-23T16:49:15.852Z,101916.67
2019-02-23T16:51:45.060Z,101919.62
2019-02-23T16:54:14.240Z,101913.81
2019-02-23T16:56:43.371Z,101912.41
2019-02-23T16:59:12.543Z,101909.77
2019-02-23T17:01:41.689Z,101915.77
2019-02-23T17:04:10.844Z,101924.78
2019-02-23T17:06:40.076Z,101923.59
2019-02-23T17:09:09.261Z,101929.09
2019-02-23T17:11:38.386Z,101925.37
2019-02-23T17:14:07.540Z,101927.23
2019-02-23T17:16:36.689Z,101923.98
2019-02-23T17:19:05.894Z,101930.59
2019-02-23T17:21:35.031Z,101930.91
2019-02-23T17:24:05.862Z,101926.47
2019-02-23T17:26:36.787Z,101925.72
2019-02-23T17:29:07.127Z,101928.82
2019-02-23T17:31:36.307Z,101927.64
2019-02-23T17:34:07.165Z,101925.29
2019-02-23T17:36:36.316Z,101926.34
2019-02-23T17:39:05.986Z,101934.64
2019-02-23T17:41:35.134Z,101933.88
2019-02-23T17:44:04.286Z,101932.40
2019-02-23T17:46:33.435Z,101944.38
2019-02-23T17:49:02.620Z,101935.97
2019-02-23T17:51:31.753Z,101939.77
2019-02-23T17:54:00.901Z,101932.24
2019-02-23T17:56:30.071Z,101938.50
2019-02-23T17:58:59.262Z,101937.96
2019-02-23T18:01:28.396Z,101944.05
2019-02-23T18:03:57.571Z,101938.25
2019-02-23T18:06:26.776Z,101938.83
2019-02-23T18:08:55.929Z,101940.75
2019-02-23T18:11:25.069Z,101946.98
2019-02-23T18:13:54.203Z,101950.18
2019-02-23T18:16:23.463Z,101951.86
2019-02-23T18:18:54.253Z,101944.42
2019-02-23T18:21:23.407Z,101941.27
2019-02-23T18:23:52.650Z,101940.59
2019-02-23T18:26:21.814Z,101943.61
2019-02-23T18:28:50.994Z,101940.89
2019-02-23T18:31:20.201Z,101938.37
2019-02-23T18:33:49.364Z,101945.99
2019-02-23T18:36:18.515Z,101942.86
2019-02-23T18:38:47.673Z,101946.50
2019-02-23T18:41:16.838Z,101946.48
2019-02-23T18:43:45.980Z,101951.82
2019-02-23T18:46:15.149Z,101947.19
2019-02-23T18:48:44.522Z,101953.92
2019-02-23T18:51:13.682Z,101951.98
2019-02-23T18:53:42.810Z,101955.02
2019-02-23T18:56:11.949Z,101948.58
2019-02-23T18:58:41.135Z,101947.29
2019-02-23T19:01:10.375Z,101951.98
2019-02-23T19:03:39.513Z,101957.73
2019-02-23T19:06:08.655Z,101955.84
2019-02-23T19:08:37.798Z,101959.93
2019-02-23T19:11:07.032Z,101952.38
2019-02-23T19:13:36.173Z,101952.69
2019-02-23T19:16:05.344Z,101945.20
2019-02-23T19:18:34.495Z,101950.02
2019-02-23T19:21:03.622Z,101946.11
2019-02-23T19:23:32.778Z,101940.80
2019-02-23T19:26:01.933Z,101934.98
2019-02-23T19:28:31.066Z,101928.29
2019-02-23T19:31:00.213Z,101931.81
2019-02-23T19:33:29.383Z,101932.80
2019-02-23T19:35:58.512Z,101930.31
2019-02-23T19:38:27.662Z,101930.58
2019-02-23T19:40:56.870Z,101925.41
2019-02-23T19:43:26.051Z,101924.83
2019-02-23T19:45:55.192Z,101927.06
2019-02-23T19:48:24.353Z,101927.27
2019-02-23T19:50:58.451Z,101931.11
2019-02-23T19:53:27.613Z,101932.02
2019-02-23T19:55:56.756Z,101932.19
2019-02-23T19:58:25.963Z,101933.94
2019-02-23T20:00:55.183Z,101933.12
2019-02-23T20:03:24.313Z,101933.00
2019-02-23T20:05:53.568Z,101931.08
2019-02-23T20:08:22.711Z,101928.86
2019-02-23T20:10:51.921Z,101930.09
2019-02-23T20:13:21.098Z,101929.02
2019-02-23T20:15:50.247Z,101940.77
2019-02-23T20:18:19.412Z,101939.29
2019-02-23T20:20:48.527Z,101946.09
2019-02-23T20:23:17.674Z,101947.17
2019-02-23T20:25:46.869Z,101946.45
2019-02-23T20:28:16.018Z,101947.27
2019-02-23T20:30:45.186Z,101950.25
2019-02-23T20:33:14.328Z,101948.58
2019-02-23T20:35:43.462Z,101943.25
2019-02-23T20:38:12.612Z,101940.34
2019-02-23T20:40:41.786Z,101937.05
2019-02-23T20:43:10.900Z,101939.83
2019-02-23T20:45:40.157Z,101942.56
2019-02-23T20:48:09.359Z,101943.75
2019-02-23T20:50:40.199Z,101931.20
2019-02-23T20:53:09.445Z,101931.53
2019-02-23T20:55:38.605Z,101932.41
2019-02-23T20:58:07.825Z,101930.34
2019-02-23T21:00:36.976Z,101929.53
2019-02-23T21:03:06.123Z,101926.36
2019-02-23T21:05:35.353Z,101931.92
2019-02-23T21:08:04.727Z,101925.22
2019-02-23T21:10:33.888Z,101934.53
2019-02-23T21:13:03.034Z,101939.50
2019-02-23T21:15:32.272Z,101944.50
2019-02-23T21:18:01.421Z,101942.53
2019-02-23T21:20:30.591Z,101938.22
2019-02-23T21:22:59.745Z,101935.16
2019-02-23T21:25:28.921Z,101932.56
2019-02-23T21:27:58.173Z,101932.37
2019-02-23T21:30:27.337Z,101929.81
2019-02-23T21:32:56.585Z,101934.81
2019-02-23T21:35:25.747Z,101922.23
2019-02-23T21:37:54.915Z,101926.97
2019-02-23T21:40:24.049Z,101932.31
2019-02-23T21:42:53.186Z,101929.86
2019-02-23T21:45:22.375Z,101930.69
2019-02-23T21:47:51.502Z,101937.07
2019-02-23T21:50:20.631Z,101933.88
2019-02-23T21:52:49.768Z,101938.02
2019-02-23T21:55:18.924Z,101940.38
2019-02-23T21:57:48.083Z,101943.80
2019-02-23T22:00:17.237Z,101938.80
2019-02-23T22:02:46.396Z,101939.95
2019-02-23T22:05:15.544Z,101944.57
2019-02-23T22:07:44.694Z,101943.55
2019-02-23T22:10:13.920Z,101946.03
2019-02-23T22:12:43.060Z,101946.80
2019-02-23T22:15:12.197Z,101944.92
2019-02-23T22:17:41.381Z,101945.06
2019-02-23T22:20:10.537Z,101942.39
2019-02-23T22:22:39.678Z,101950.67
2019-02-23T22:25:08.948Z,101951.77
2019-02-23T22:27:40.137Z,101951.92
2019-02-23T22:30:09.186Z,101956.23
2019-02-23T22:32:38.341Z,101941.05
2019-02-23T22:35:13.036Z,101948.09
2019-02-23T22:37:42.194Z,101949.33
2019-02-23T22:40:11.323Z,101941.78
2019-02-23T22:42:40.460Z,101950.08
2019-02-23T22:45:09.629Z,101947.67
2019-02-23T22:47:38.757Z,101951.59
2019-02-23T22:50:09.167Z,101959.44
2019-02-23T22:52:38.307Z,101961.06
2019-02-23T22:55:07.533Z,101960.33
2019-02-23T22:57:40.709Z,101962.86
2019-02-23T23:00:15.068Z,101962.05
2019-02-23T23:02:44.268Z,101973.41
2019-02-23T23:05:13.492Z,101971.64
2019-02-23T23:07:44.242Z,101972.33
2019-02-23T23:10:13.408Z,101977.34
2019-02-23T23:12:42.590Z,101977.00
2019-02-23T23:15:11.809Z,101973.56
2019-02-23T23:17:40.940Z,101979.34
2019-02-23T23:20:10.196Z,101966.07
2019-02-23T23:22:39.322Z,101966.50
2019-02-23T23:25:08.578Z,101967.00
2019-02-23T23:27:37.704Z,101961.32
2019-02-23T23:30:08.888Z,101963.59
2019-02-23T23:32:38.020Z,101964.52
2019-02-23T23:35:07.239Z,101961.50
2019-02-23T23:37:36.374Z,101955.31
2019-02-23T23:40:06.843Z,101951.30
2019-02-23T23:42:35.957Z,101940.33
2019-02-23T23:45:06.411Z,101949.66
2019-02-23T23:47:35.551Z,101950.03
2019-02-23T23:50:06.008Z,101952.99
2019-02-23T23:52:35.200Z,101953.75
2019-02-23T23:55:05.371Z,101953.75
2019-02-23T23:57:34.508Z,101948.73
